»·PEaware :: N210AR KSNA-KBUR

N210AR :: KSNA-KBUR

FLIGHT INFORMATION

Flight Status: Arrived
Operator: Privately registered:
United States
More flights under this callsign
Pilot: Max S. (16657)
Aircraft: CESSNA 172 SKYHAWK
(C172)
More flights by this aircraft type
Origin: KSNA John Wayne-Orange Co
United States
Destination: KBUR Bob Hope-Burbank
United States
More flights between these airports :: More routes between these airports
Route: +SLI V23 POPPR SMO125R SMO SMO311R SILEX
File this flight plan on PilotEdge
Remarks: TEC route CSTP1
Altitude:
(Current/Filed)
4,000ft
Speed:
(Current/Filed)
100kts
Departed: 19-Nov-20 10:17 AM
Arrived: 19-Nov-20 10:55 AM
Distance/Time
Traveled:
40nm/0:38
Distance/Time
To Go:
Arrived

Flight Plot

Page will automatically refresh every two minutes.


Map Options




Map Legend


Flown Route
Filed Route
Departure Airport
Arrival Airport
Navaid (VOR, NDB)
Fix

Horizontal Profiles

Position Reports

Time Latitude Longitude Heading Altitude Ground
Speed
19-Nov-20 09:58 33.670560 -117.867903 210 60ft 0kts
19-Nov-20 09:59 33.670560 -117.867903 210 60ft 0kts
19-Nov-20 10:00 33.670560 -117.867903 210 60ft 0kts
19-Nov-20 10:01 33.670560 -117.867903 210 60ft 0kts
19-Nov-20 10:02 33.670560 -117.867903 210 60ft 0kts
19-Nov-20 10:03 33.670521 -117.867930 206 60ft 0kts
19-Nov-20 10:04 33.670521 -117.867930 206 60ft 0kts
19-Nov-20 10:05 33.670521 -117.867930 206 60ft 0kts
19-Nov-20 10:06 33.670521 -117.867930 206 60ft 0kts
19-Nov-20 10:07 33.670521 -117.867930 206 60ft 0kts
19-Nov-20 10:08 33.670521 -117.867930 206 60ft 0kts
19-Nov-20 10:09 33.670521 -117.867930 206 60ft 0kts
19-Nov-20 10:10 33.670521 -117.867930 206 60ft 0kts
19-Nov-20 10:11 33.671481 -117.868555 28 60ft 11kts
19-Nov-20 10:12 33.674555 -117.866800 28 60ft 12kts
19-Nov-20 10:13 33.678079 -117.864563 27 60ft 16kts
19-Nov-20 10:14 33.679970 -117.863623 298 60ft 0kts
19-Nov-20 10:15 33.679970 -117.863623 298 60ft 0kts
19-Nov-20 10:16 33.675755 -117.866988 208 144ft 70kts
19-Nov-20 10:17 33.659043 -117.882231 219 960ft 89kts
19-Nov-20 10:18 33.639116 -117.902620 219 1767ft 97kts
19-Nov-20 10:19 33.615722 -117.926583 220 2232ft 111kts
19-Nov-20 10:20 33.593912 -117.948906 219 3077ft 95kts
19-Nov-20 10:21 33.574681 -117.968540 219 3816ft 98kts
19-Nov-20 10:22 33.561657 -117.999589 310 3780ft 117kts
19-Nov-20 10:23 33.586440 -118.024051 321 3788ft 118kts
19-Nov-20 10:24 33.612615 -118.048931 321 3787ft 121kts
19-Nov-20 10:25 33.639015 -118.074034 321 3787ft 121kts
19-Nov-20 10:26 33.664568 -118.100446 315 3787ft 121kts
19-Nov-20 10:27 33.688703 -118.128842 315 3787ft 121kts
19-Nov-20 10:28 33.712830 -118.157251 315 3787ft 121kts
19-Nov-20 10:29 33.737431 -118.184925 317 3787ft 121kts
19-Nov-20 10:30 33.762362 -118.212326 317 3787ft 121kts
19-Nov-20 10:31 33.787378 -118.239820 317 3787ft 121kts
19-Nov-20 10:32 33.812499 -118.266989 320 3787ft 121kts
19-Nov-20 10:33 33.839513 -118.291304 326 3787ft 121kts
19-Nov-20 10:34 33.867657 -118.313652 326 3787ft 121kts
19-Nov-20 10:35 33.895257 -118.337247 324 3787ft 121kts
19-Nov-20 10:36 33.919766 -118.364968 313 3787ft 121kts
19-Nov-20 10:37 33.944101 -118.393139 316 3787ft 121kts
19-Nov-20 10:38 33.971154 -118.417524 321 3787ft 121kts
19-Nov-20 10:39 33.997145 -118.443369 320 3787ft 121kts
19-Nov-20 10:40 34.023502 -118.468994 324 3787ft 121kts
19-Nov-20 10:41 34.051339 -118.491995 326 3787ft 121kts
19-Nov-20 10:42 34.079474 -118.514826 326 3787ft 121kts
19-Nov-20 10:43 34.107498 -118.537568 326 3787ft 121kts
19-Nov-20 10:44 34.135455 -118.560273 326 3787ft 121kts
19-Nov-20 10:45 34.163523 -118.583087 326 3787ft 121kts
19-Nov-20 10:46 34.192778 -118.601393 14 3781ft 121kts
19-Nov-20 10:47 34.211051 -118.569004 62 3787ft 121kts
19-Nov-20 10:48 34.204525 -118.528701 123 3217ft 131kts
19-Nov-20 10:49 34.198961 -118.488631 84 2687ft 113kts
19-Nov-20 10:50 34.201365 -118.454703 85 2696ft 94kts
19-Nov-20 10:51 34.198713 -118.419557 93 1792ft 116kts
19-Nov-20 10:52 34.198096 -118.385695 91 1072ft 84kts
19-Nov-20 10:53 34.197826 -118.362336 91 723ft 46kts
19-Nov-20 10:54 34.198603 -118.360255 2 723ft 0kts
19-Nov-20 10:55 34.199427 -118.362063 316 728ft 13kts
19-Nov-20 10:56 34.199917 -118.363594 185 732ft 0kts
19-Nov-20 10:57 34.199917 -118.363594 185 732ft 0kts
19-Nov-20 10:58 34.199917 -118.363594 185 732ft 0kts
19-Nov-20 10:59 34.199917 -118.363594 185 732ft 0kts

Navigation Log

Ident Type
Flight plan parsing failed, navigation log unavailable